sensor_id;sensor_type;location;lat;lon;timestamp;temperature;humidity
45807;DHT22;31507;51.494;7.518;2022-07-29T00:00:36;17.50;83.70
45807;DHT22;31507;51.494;7.518;2022-07-29T00:03:02;17.50;83.60
45807;DHT22;31507;51.494;7.518;2022-07-29T00:05:28;17.60;83.60
45807;DHT22;31507;51.494;7.518;2022-07-29T00:07:53;17.60;83.60
45807;DHT22;31507;51.494;7.518;2022-07-29T00:10:19;17.60;83.50
45807;DHT22;31507;51.494;7.518;2022-07-29T00:12:45;17.60;83.70
45807;DHT22;31507;51.494;7.518;2022-07-29T00:15:11;17.50;83.60
45807;DHT22;31507;51.494;7.518;2022-07-29T00:17:36;17.50;83.70
45807;DHT22;31507;51.494;7.518;2022-07-29T00:20:03;17.50;84.00
45807;DHT22;31507;51.494;7.518;2022-07-29T00:22:28;17.50;83.90
45807;DHT22;31507;51.494;7.518;2022-07-29T00:24:54;17.50;84.30
45807;DHT22;31507;51.494;7.518;2022-07-29T00:27:20;17.40;84.40
45807;DHT22;31507;51.494;7.518;2022-07-29T00:29:45;17.40;84.60
45807;DHT22;31507;51.494;7.518;2022-07-29T00:32:11;17.40;84.80
45807;DHT22;31507;51.494;7.518;2022-07-29T00:34:37;17.30;85.00
45807;DHT22;31507;51.494;7.518;2022-07-29T00:37:21;17.30;85.10
45807;DHT22;31507;51.494;7.518;2022-07-29T00:39:47;17.30;84.90
45807;DHT22;31507;51.494;7.518;2022-07-29T00:42:13;17.30;84.90
45807;DHT22;31507;51.494;7.518;2022-07-29T00:44:40;17.20;84.90
45807;DHT22;31507;51.494;7.518;2022-07-29T00:47:07;17.20;85.10
45807;DHT22;31507;51.494;7.518;2022-07-29T00:49:33;17.20;85.30
45807;DHT22;31507;51.494;7.518;2022-07-29T00:52:01;17.10;85.40
45807;DHT22;31507;51.494;7.518;2022-07-29T00:54:27;17.10;85.50
45807;DHT22;31507;51.494;7.518;2022-07-29T00:56:56;17.00;85.80
45807;DHT22;31507;51.494;7.518;2022-07-29T00:59:23;16.90;86.50
45807;DHT22;31507;51.494;7.518;2022-07-29T01:01:48;16.80;87.20
45807;DHT22;31507;51.494;7.518;2022-07-29T01:04:14;16.80;86.90
45807;DHT22;31507;51.494;7.518;2022-07-29T01:06:40;16.80;87.30
45807;DHT22;31507;51.494;7.518;2022-07-29T01:09:06;16.70;87.90
45807;DHT22;31507;51.494;7.518;2022-07-29T01:11:33;16.60;88.30
45807;DHT22;31507;51.494;7.518;2022-07-29T01:13:59;16.60;88.40
45807;DHT22;31507;51.494;7.518;2022-07-29T01:16:31;16.50;88.70
45807;DHT22;31507;51.494;7.518;2022-07-29T01:19:12;16.50;89.30
45807;DHT22;31507;51.494;7.518;2022-07-29T01:21:55;16.50;89.00
45807;DHT22;31507;51.494;7.518;2022-07-29T01:27:02;16.40;89.80
45807;DHT22;31507;51.494;7.518;2022-07-29T01:29:32;16.40;89.60
45807;DHT22;31507;51.494;7.518;2022-07-29T01:32:17;16.40;89.80
45807;DHT22;31507;51.494;7.518;2022-07-29T01:34:54;16.30;90.30
45807;DHT22;31507;51.494;7.518;2022-07-29T01:37:22;16.30;90.10
45807;DHT22;31507;51.494;7.518;2022-07-29T01:39:50;16.30;90.10
45807;DHT22;31507;51.494;7.518;2022-07-29T01:42:26;16.30;90.30
45807;DHT22;31507;51.494;7.518;2022-07-29T01:48:03;16.30;90.50
45807;DHT22;31507;51.494;7.518;2022-07-29T01:50:35;16.30;90.90
45807;DHT22;31507;51.494;7.518;2022-07-29T01:53:05;16.30;90.40
45807;DHT22;31507;51.494;7.518;2022-07-29T01:55:35;16.30;90.40
45807;DHT22;31507;51.494;7.518;2022-07-29T01:58:03;16.20;90.60
45807;DHT22;31507;51.494;7.518;2022-07-29T02:00:31;16.10;90.90
45807;DHT22;31507;51.494;7.518;2022-07-29T02:02:59;16.00;91.30
45807;DHT22;31507;51.494;7.518;2022-07-29T02:05:27;15.90;91.80
45807;DHT22;31507;51.494;7.518;2022-07-29T02:07:56;15.90;91.80
45807;DHT22;31507;51.494;7.518;2022-07-29T02:10:25;15.80;91.90
45807;DHT22;31507;51.494;7.518;2022-07-29T02:12:52;15.90;92.00
45807;DHT22;31507;51.494;7.518;2022-07-29T02:15:19;15.90;92.00
45807;DHT22;31507;51.494;7.518;2022-07-29T02:17:49;15.80;92.10
45807;DHT22;31507;51.494;7.518;2022-07-29T02:20:16;15.80;92.20
45807;DHT22;31507;51.494;7.518;2022-07-29T02:22:43;15.80;92.30
45807;DHT22;31507;51.494;7.518;2022-07-29T02:25:11;15.80;92.40
45807;DHT22;31507;51.494;7.518;2022-07-29T02:27:38;15.80;92.40
45807;DHT22;31507;51.494;7.518;2022-07-29T02:30:05;15.80;92.40
45807;DHT22;31507;51.494;7.518;2022-07-29T02:32:35;15.80;92.50
45807;DHT22;31507;51.494;7.518;2022-07-29T02:35:02;15.80;92.60
45807;DHT22;31507;51.494;7.518;2022-07-29T02:37:29;15.80;92.60
45807;DHT22;31507;51.494;7.518;2022-07-29T02:39:57;15.80;92.80
45807;DHT22;31507;51.494;7.518;2022-07-29T02:42:24;15.80;92.90
45807;DHT22;31507;51.494;7.518;2022-07-29T02:44:52;15.80;93.00
45807;DHT22;31507;51.494;7.518;2022-07-29T02:47:46;15.80;92.80
45807;DHT22;31507;51.494;7.518;2022-07-29T02:50:17;15.90;93.00
45807;DHT22;31507;51.494;7.518;2022-07-29T02:55:30;15.80;93.00
45807;DHT22;31507;51.494;7.518;2022-07-29T03:00:40;15.80;93.30
45807;DHT22;31507;51.494;7.518;2022-07-29T03:03:13;15.70;93.20
45807;DHT22;31507;51.494;7.518;2022-07-29T03:05:40;15.70;93.40
45807;DHT22;31507;51.494;7.518;2022-07-29T03:08:08;15.60;93.60
45807;DHT22;31507;51.494;7.518;2022-07-29T03:10:34;15.60;93.80
45807;DHT22;31507;51.494;7.518;2022-07-29T03:13:02;15.60;94.00
45807;DHT22;31507;51.494;7.518;2022-07-29T03:15:30;15.60;94.00
45807;DHT22;31507;51.494;7.518;2022-07-29T03:17:57;15.50;94.10
45807;DHT22;31507;51.494;7.518;2022-07-29T03:20:24;15.50;94.20
45807;DHT22;31507;51.494;7.518;2022-07-29T03:22:50;15.50;94.30
45807;DHT22;31507;51.494;7.518;2022-07-29T03:25:18;15.50;94.70
45807;DHT22;31507;51.494;7.518;2022-07-29T03:27:44;15.40;94.80
45807;DHT22;31507;51.494;7.518;2022-07-29T03:30:11;15.30;95.40
45807;DHT22;31507;51.494;7.518;2022-07-29T03:32:37;15.20;95.80
45807;DHT22;31507;51.494;7.518;2022-07-29T03:35:04;15.20;96.10
45807;DHT22;31507;51.494;7.518;2022-07-29T03:37:30;15.20;96.10
45807;DHT22;31507;51.494;7.518;2022-07-29T03:39:57;15.20;96.80
45807;DHT22;31507;51.494;7.518;2022-07-29T03:42:27;15.20;96.60
45807;DHT22;31507;51.494;7.518;2022-07-29T03:44:54;15.30;96.40
45807;DHT22;31507;51.494;7.518;2022-07-29T03:47:23;15.30;96.10
45807;DHT22;31507;51.494;7.518;2022-07-29T03:49:54;15.30;96.30
45807;DHT22;31507;51.494;7.518;2022-07-29T03:52:22;15.20;96.60
45807;DHT22;31507;51.494;7.518;2022-07-29T03:54:48;15.20;97.10
45807;DHT22;31507;51.494;7.518;2022-07-29T03:57:15;15.20;97.20
45807;DHT22;31507;51.494;7.518;2022-07-29T03:59:41;15.20;97.40
45807;DHT22;31507;51.494;7.518;2022-07-29T04:02:09;15.20;97.40
45807;DHT22;31507;51.494;7.518;2022-07-29T04:04:36;15.10;97.70
45807;DHT22;31507;51.494;7.518;2022-07-29T04:07:03;15.10;97.80
45807;DHT22;31507;51.494;7.518;2022-07-29T04:09:29;15.20;97.90
45807;DHT22;31507;51.494;7.518;2022-07-29T04:11:55;15.20;98.10
45807;DHT22;31507;51.494;7.518;2022-07-29T04:14:20;15.30;97.80
45807;DHT22;31507;51.494;7.518;2022-07-29T04:16:47;15.30;98.10
45807;DHT22;31507;51.494;7.518;2022-07-29T04:19:12;15.30;98.10
45807;DHT22;31507;51.494;7.518;2022-07-29T04:21:41;15.30;98.40
45807;DHT22;31507;51.494;7.518;2022-07-29T04:24:08;15.20;98.60
45807;DHT22;31507;51.494;7.518;2022-07-29T04:26:34;15.20;98.90
45807;DHT22;31507;51.494;7.518;2022-07-29T04:29:00;15.20;98.70
45807;DHT22;31507;51.494;7.518;2022-07-29T04:31:25;15.20;99.10
45807;DHT22;31507;51.494;7.518;2022-07-29T04:33:51;15.30;99.80
45807;DHT22;31507;51.494;7.518;2022-07-29T04:36:17;15.30;99.90
45807;DHT22;31507;51.494;7.518;2022-07-29T04:38:42;15.30;99.90
45807;DHT22;31507;51.494;7.518;2022-07-29T04:41:08;15.30;99.70
45807;DHT22;31507;51.494;7.518;2022-07-29T04:43:37;15.40;98.80
45807;DHT22;31507;51.494;7.518;2022-07-29T04:46:03;15.50;99.20
45807;DHT22;31507;51.494;7.518;2022-07-29T04:48:29;15.50;98.60
45807;DHT22;31507;51.494;7.518;2022-07-29T04:50:55;15.60;98.20
45807;DHT22;31507;51.494;7.518;2022-07-29T04:53:21;15.60;98.30
45807;DHT22;31507;51.494;7.518;2022-07-29T04:55:47;15.60;97.90
45807;DHT22;31507;51.494;7.518;2022-07-29T04:58:13;15.70;97.80
45807;DHT22;31507;51.494;7.518;2022-07-29T05:00:39;15.70;98.10
45807;DHT22;31507;51.494;7.518;2022-07-29T05:03:05;15.70;97.30
45807;DHT22;31507;51.494;7.518;2022-07-29T05:05:30;15.80;97.10
45807;DHT22;31507;51.494;7.518;2022-07-29T05:07:56;15.90;96.70
45807;DHT22;31507;51.494;7.518;2022-07-29T05:10:22;15.90;96.30
45807;DHT22;31507;51.494;7.518;2022-07-29T05:12:48;16.00;96.30
45807;DHT22;31507;51.494;7.518;2022-07-29T05:15:13;16.00;96.30
45807;DHT22;31507;51.494;7.518;2022-07-29T05:17:39;16.00;95.90
45807;DHT22;31507;51.494;7.518;2022-07-29T05:20:06;16.00;95.40
45807;DHT22;31507;51.494;7.518;2022-07-29T05:22:31;16.00;95.90
45807;DHT22;31507;51.494;7.518;2022-07-29T05:24:57;16.00;95.80
45807;DHT22;31507;51.494;7.518;2022-07-29T05:27:23;16.10;95.30
45807;DHT22;31507;51.494;7.518;2022-07-29T05:29:48;16.10;95.60
45807;DHT22;31507;51.494;7.518;2022-07-29T05:32:14;16.10;95.40
45807;DHT22;31507;51.494;7.518;2022-07-29T05:34:42;16.10;95.20
45807;DHT22;31507;51.494;7.518;2022-07-29T05:37:08;16.10;95.20
45807;DHT22;31507;51.494;7.518;2022-07-29T05:39:33;16.10;95.00
45807;DHT22;31507;51.494;7.518;2022-07-29T05:41:59;16.10;95.20
45807;DHT22;31507;51.494;7.518;2022-07-29T05:44:30;16.20;95.20
45807;DHT22;31507;51.494;7.518;2022-07-29T05:46:55;16.20;95.10
45807;DHT22;31507;51.494;7.518;2022-07-29T05:49:21;16.30;94.90
45807;DHT22;31507;51.494;7.518;2022-07-29T05:51:47;16.30;95.10
45807;DHT22;31507;51.494;7.518;2022-07-29T05:54:14;16.40;94.80
45807;DHT22;31507;51.494;7.518;2022-07-29T05:56:39;16.40;94.70
45807;DHT22;31507;51.494;7.518;2022-07-29T05:59:05;16.50;94.50
45807;DHT22;31507;51.494;7.518;2022-07-29T06:01:33;16.60;94.90
45807;DHT22;31507;51.494;7.518;2022-07-29T06:04:05;16.80;94.60
45807;DHT22;31507;51.494;7.518;2022-07-29T06:06:32;16.90;94.30
45807;DHT22;31507;51.494;7.518;2022-07-29T06:08:59;17.10;94.00
45807;DHT22;31507;51.494;7.518;2022-07-29T06:11:25;17.40;93.70
45807;DHT22;31507;51.494;7.518;2022-07-29T06:13:53;17.60;93.40
45807;DHT22;31507;51.494;7.518;2022-07-29T06:16:19;17.80;92.90
45807;DHT22;31507;51.494;7.518;2022-07-29T06:18:44;18.20;92.60
45807;DHT22;31507;51.494;7.518;2022-07-29T06:21:10;18.30;92.10
45807;DHT22;31507;51.494;7.518;2022-07-29T06:23:39;18.20;91.40
45807;DHT22;31507;51.494;7.518;2022-07-29T06:26:05;18.30;91.30
45807;DHT22;31507;51.494;7.518;2022-07-29T06:28:32;18.30;91.10
45807;DHT22;31507;51.494;7.518;2022-07-29T06:30:58;18.00;91.40
45807;DHT22;31507;51.494;7.518;2022-07-29T06:33:24;18.00;92.10
45807;DHT22;31507;51.494;7.518;2022-07-29T06:35:50;18.00;91.60
45807;DHT22;31507;51.494;7.518;2022-07-29T06:38:17;17.90;91.30
45807;DHT22;31507;51.494;7.518;2022-07-29T06:40:45;17.90;91.70
45807;DHT22;31507;51.494;7.518;2022-07-29T06:43:35;17.90;91.70
45807;DHT22;31507;51.494;7.518;2022-07-29T06:46:05;18.10;91.80
45807;DHT22;31507;51.494;7.518;2022-07-29T06:48:32;18.10;91.30
45807;DHT22;31507;51.494;7.518;2022-07-29T06:50:58;18.20;91.50
45807;DHT22;31507;51.494;7.518;2022-07-29T06:53:24;18.30;91.10
45807;DHT22;31507;51.494;7.518;2022-07-29T06:55:50;18.50;90.80
45807;DHT22;31507;51.494;7.518;2022-07-29T06:58:16;18.60;90.90
45807;DHT22;31507;51.494;7.518;2022-07-29T07:00:45;18.70;90.30
45807;DHT22;31507;51.494;7.518;2022-07-29T07:03:11;18.80;90.50
45807;DHT22;31507;51.494;7.518;2022-07-29T07:05:36;18.90;90.30
45807;DHT22;31507;51.494;7.518;2022-07-29T07:08:03;18.90;89.60
45807;DHT22;31507;51.494;7.518;2022-07-29T07:10:28;18.90;90.40
45807;DHT22;31507;51.494;7.518;2022-07-29T07:12:54;19.00;89.80
45807;DHT22;31507;51.494;7.518;2022-07-29T07:15:20;19.10;90.80
45807;DHT22;31507;51.494;7.518;2022-07-29T07:17:49;19.20;90.50
45807;DHT22;31507;51.494;7.518;2022-07-29T07:20:16;19.20;89.70
45807;DHT22;31507;51.494;7.518;2022-07-29T07:22:42;19.10;90.00
45807;DHT22;31507;51.494;7.518;2022-07-29T07:25:07;19.30;89.10
45807;DHT22;31507;51.494;7.518;2022-07-29T07:27:34;19.40;89.10
45807;DHT22;31507;51.494;7.518;2022-07-29T07:30:00;19.60;87.40
45807;DHT22;31507;51.494;7.518;2022-07-29T07:32:26;19.50;87.00
45807;DHT22;31507;51.494;7.518;2022-07-29T07:34:51;19.50;87.60
45807;DHT22;31507;51.494;7.518;2022-07-29T07:37:17;19.90;88.20
45807;DHT22;31507;51.494;7.518;2022-07-29T07:39:46;20.20;87.50
45807;DHT22;31507;51.494;7.518;2022-07-29T07:42:11;20.40;86.10
45807;DHT22;31507;51.494;7.518;2022-07-29T07:44:39;20.30;85.00
45807;DHT22;31507;51.494;7.518;2022-07-29T07:47:05;20.40;84.70
45807;DHT22;31507;51.494;7.518;2022-07-29T07:49:30;20.60;84.70
45807;DHT22;31507;51.494;7.518;2022-07-29T07:51:56;20.80;84.70
45807;DHT22;31507;51.494;7.518;2022-07-29T07:54:22;21.00;84.30
45807;DHT22;31507;51.494;7.518;2022-07-29T07:56:48;21.20;85.10
45807;DHT22;31507;51.494;7.518;2022-07-29T07:59:16;21.20;83.60
45807;DHT22;31507;51.494;7.518;2022-07-29T08:01:42;21.50;84.50
45807;DHT22;31507;51.494;7.518;2022-07-29T08:04:08;21.60;83.50
45807;DHT22;31507;51.494;7.518;2022-07-29T08:06:34;21.50;82.40
45807;DHT22;31507;51.494;7.518;2022-07-29T08:09:02;21.50;81.90
45807;DHT22;31507;51.494;7.518;2022-07-29T08:11:28;21.70;81.50
45807;DHT22;31507;51.494;7.518;2022-07-29T08:13:54;21.80;81.60
45807;DHT22;31507;51.494;7.518;2022-07-29T08:16:20;21.70;80.00
45807;DHT22;31507;51.494;7.518;2022-07-29T08:18:46;21.70;80.40
45807;DHT22;31507;51.494;7.518;2022-07-29T08:21:13;21.70;79.80
45807;DHT22;31507;51.494;7.518;2022-07-29T08:23:39;21.80;80.20
45807;DHT22;31507;51.494;7.518;2022-07-29T08:26:10;21.90;79.40
45807;DHT22;31507;51.494;7.518;2022-07-29T08:28:41;22.30;80.00
45807;DHT22;31507;51.494;7.518;2022-07-29T08:31:10;22.60;77.70
45807;DHT22;31507;51.494;7.518;2022-07-29T08:33:35;22.50;78.50
45807;DHT22;31507;51.494;7.518;2022-07-29T08:36:01;22.50;78.10
45807;DHT22;31507;51.494;7.518;2022-07-29T08:38:27;22.50;78.20
45807;DHT22;31507;51.494;7.518;2022-07-29T08:40:54;22.70;78.90
45807;DHT22;31507;51.494;7.518;2022-07-29T08:43:20;23.20;79.40
45807;DHT22;31507;51.494;7.518;2022-07-29T08:45:48;23.80;78.00
45807;DHT22;31507;51.494;7.518;2022-07-29T08:48:16;23.90;75.60
45807;DHT22;31507;51.494;7.518;2022-07-29T08:50:43;23.90;75.90
45807;DHT22;31507;51.494;7.518;2022-07-29T08:53:14;24.10;75.60
45807;DHT22;31507;51.494;7.518;2022-07-29T08:55:47;24.90;74.80
45807;DHT22;31507;51.494;7.518;2022-07-29T08:58:16;25.10;73.10
45807;DHT22;31507;51.494;7.518;2022-07-29T09:00:45;25.50;73.90
45807;DHT22;31507;51.494;7.518;2022-07-29T09:03:15;25.70;71.40
45807;DHT22;31507;51.494;7.518;2022-07-29T09:05:43;25.20;70.60
45807;DHT22;31507;51.494;7.518;2022-07-29T09:08:10;24.90;72.00
45807;DHT22;31507;51.494;7.518;2022-07-29T09:10:36;24.70;72.30
45807;DHT22;31507;51.494;7.518;2022-07-29T09:13:02;24.40;72.50
45807;DHT22;31507;51.494;7.518;2022-07-29T09:15:28;24.20;73.00
45807;DHT22;31507;51.494;7.518;2022-07-29T09:17:54;24.30;73.10
45807;DHT22;31507;51.494;7.518;2022-07-29T09:20:22;24.20;71.70
45807;DHT22;31507;51.494;7.518;2022-07-29T09:22:49;23.80;71.80
45807;DHT22;31507;51.494;7.518;2022-07-29T09:25:35;23.90;72.80
45807;DHT22;31507;51.494;7.518;2022-07-29T09:28:09;23.70;71.10
45807;DHT22;31507;51.494;7.518;2022-07-29T09:30:35;23.80;73.10
45807;DHT22;31507;51.494;7.518;2022-07-29T09:33:02;23.60;72.70
45807;DHT22;31507;51.494;7.518;2022-07-29T09:35:29;23.50;72.80
45807;DHT22;31507;51.494;7.518;2022-07-29T09:37:56;23.60;73.00
45807;DHT22;31507;51.494;7.518;2022-07-29T09:40:26;23.40;73.40
45807;DHT22;31507;51.494;7.518;2022-07-29T09:42:52;23.50;73.00
45807;DHT22;31507;51.494;7.518;2022-07-29T09:45:34;23.30;73.40
45807;DHT22;31507;51.494;7.518;2022-07-29T09:48:16;23.20;75.20
45807;DHT22;31507;51.494;7.518;2022-07-29T09:50:44;23.40;73.40
45807;DHT22;31507;51.494;7.518;2022-07-29T09:53:10;23.40;74.00
45807;DHT22;31507;51.494;7.518;2022-07-29T09:56:05;23.70;74.70
45807;DHT22;31507;51.494;7.518;2022-07-29T09:58:31;24.10;74.50
45807;DHT22;31507;51.494;7.518;2022-07-29T10:01:00;24.10;75.10
45807;DHT22;31507;51.494;7.518;2022-07-29T10:03:27;24.00;75.80
45807;DHT22;31507;51.494;7.518;2022-07-29T10:06:07;23.70;77.40
45807;DHT22;31507;51.494;7.518;2022-07-29T10:08:33;23.40;77.40
45807;DHT22;31507;51.494;7.518;2022-07-29T10:11:25;23.00;78.40
45807;DHT22;31507;51.494;7.518;2022-07-29T10:13:50;22.80;78.10
45807;DHT22;31507;51.494;7.518;2022-07-29T10:16:17;22.40;79.50
45807;DHT22;31507;51.494;7.518;2022-07-29T10:18:44;22.20;80.50
45807;DHT22;31507;51.494;7.518;2022-07-29T10:21:09;22.10;80.70
45807;DHT22;31507;51.494;7.518;2022-07-29T10:23:36;21.70;81.20
45807;DHT22;31507;51.494;7.518;2022-07-29T10:26:03;21.60;82.40
45807;DHT22;31507;51.494;7.518;2022-07-29T10:28:32;21.40;83.60
45807;DHT22;31507;51.494;7.518;2022-07-29T10:32:00;21.40;84.40
45807;DHT22;31507;51.494;7.518;2022-07-29T10:34:23;21.10;85.10
45807;DHT22;31507;51.494;7.518;2022-07-29T10:37:17;20.80;86.20
45807;DHT22;31507;51.494;7.518;2022-07-29T10:40:06;20.70;87.50
45807;DHT22;31507;51.494;7.518;2022-07-29T10:42:55;20.60;87.00
45807;DHT22;31507;51.494;7.518;2022-07-29T10:45:22;20.50;88.60
45807;DHT22;31507;51.494;7.518;2022-07-29T10:48:03;20.40;89.30
45807;DHT22;31507;51.494;7.518;2022-07-29T10:56:42;20.20;91.70
45807;DHT22;31507;51.494;7.518;2022-07-29T11:01:50;20.00;92.80
45807;DHT22;31507;51.494;7.518;2022-07-29T11:04:30;20.00;92.50
45807;DHT22;31507;51.494;7.518;2022-07-29T11:09:30;20.00;93.00
45807;DHT22;31507;51.494;7.518;2022-07-29T11:11:59;19.90;92.70
45807;DHT22;31507;51.494;7.518;2022-07-29T11:14:56;19.90;92.80
45807;DHT22;31507;51.494;7.518;2022-07-29T11:17:24;19.80;92.30
45807;DHT22;31507;51.494;7.518;2022-07-29T11:19:50;19.80;92.70
45807;DHT22;31507;51.494;7.518;2022-07-29T11:22:35;19.90;92.20
45807;DHT22;31507;51.494;7.518;2022-07-29T11:25:17;20.00;93.40
45807;DHT22;31507;51.494;7.518;2022-07-29T11:27:46;20.00;92.40
45807;DHT22;31507;51.494;7.518;2022-07-29T11:30:12;20.00;92.20
45807;DHT22;31507;51.494;7.518;2022-07-29T11:32:41;20.10;92.70
45807;DHT22;31507;51.494;7.518;2022-07-29T11:35:12;20.40;91.80
45807;DHT22;31507;51.494;7.518;2022-07-29T11:37:38;20.70;91.90
45807;DHT22;31507;51.494;7.518;2022-07-29T11:45:17;21.60;90.10
45807;DHT22;31507;51.494;7.518;2022-07-29T11:47:49;21.70;90.40
45807;DHT22;31507;51.494;7.518;2022-07-29T11:50:27;21.90;89.80
45807;DHT22;31507;51.494;7.518;2022-07-29T11:52:53;21.80;90.00
45807;DHT22;31507;51.494;7.518;2022-07-29T11:55:21;21.70;89.50
45807;DHT22;31507;51.494;7.518;2022-07-29T11:57:59;21.60;89.30
45807;DHT22;31507;51.494;7.518;2022-07-29T12:02:54;21.50;88.60
45807;DHT22;31507;51.494;7.518;2022-07-29T12:05:20;21.20;88.30
45807;DHT22;31507;51.494;7.518;2022-07-29T12:07:47;21.10;88.80
45807;DHT22;31507;51.494;7.518;2022-07-29T12:10:13;20.90;89.80
45807;DHT22;31507;51.494;7.518;2022-07-29T12:12:38;20.80;90.20
45807;DHT22;31507;51.494;7.518;2022-07-29T12:15:15;20.70;90.60
45807;DHT22;31507;51.494;7.518;2022-07-29T12:17:42;20.60;91.10
45807;DHT22;31507;51.494;7.518;2022-07-29T12:20:08;20.30;92.00
45807;DHT22;31507;51.494;7.518;2022-07-29T12:22:40;20.20;92.50
45807;DHT22;31507;51.494;7.518;2022-07-29T12:25:09;20.10;93.60
45807;DHT22;31507;51.494;7.518;2022-07-29T12:27:36;20.00;94.10
45807;DHT22;31507;51.494;7.518;2022-07-29T12:30:08;20.00;94.90
45807;DHT22;31507;51.494;7.518;2022-07-29T12:32:39;20.00;94.60
45807;DHT22;31507;51.494;7.518;2022-07-29T12:35:13;20.10;94.70
45807;DHT22;31507;51.494;7.518;2022-07-29T12:37:40;20.10;94.30
45807;DHT22;31507;51.494;7.518;2022-07-29T12:40:08;20.20;93.90
45807;DHT22;31507;51.494;7.518;2022-07-29T12:42:34;20.10;94.40
45807;DHT22;31507;51.494;7.518;2022-07-29T12:45:01;20.10;93.90
45807;DHT22;31507;51.494;7.518;2022-07-29T12:47:27;20.20;94.30
45807;DHT22;31507;51.494;7.518;2022-07-29T12:50:11;20.40;94.00
45807;DHT22;31507;51.494;7.518;2022-07-29T12:52:37;20.70;94.00
45807;DHT22;31507;51.494;7.518;2022-07-29T12:55:03;21.00;93.10
45807;DHT22;31507;51.494;7.518;2022-07-29T12:57:29;21.30;93.20
45807;DHT22;31507;51.494;7.518;2022-07-29T13:00:11;21.50;92.00
45807;DHT22;31507;51.494;7.518;2022-07-29T13:02:39;21.70;91.90
45807;DHT22;31507;51.494;7.518;2022-07-29T13:05:06;21.70;91.40
45807;DHT22;31507;51.494;7.518;2022-07-29T13:07:34;21.70;91.50
45807;DHT22;31507;51.494;7.518;2022-07-29T13:10:20;21.70;91.30
45807;DHT22;31507;51.494;7.518;2022-07-29T13:13:10;21.50;90.70
45807;DHT22;31507;51.494;7.518;2022-07-29T13:15:43;21.40;91.20
45807;DHT22;31507;51.494;7.518;2022-07-29T13:18:32;21.10;91.00
45807;DHT22;31507;51.494;7.518;2022-07-29T13:21:11;20.80;91.20
45807;DHT22;31507;51.494;7.518;2022-07-29T13:23:37;20.70;91.50
45807;DHT22;31507;51.494;7.518;2022-07-29T13:26:07;20.60;91.80
45807;DHT22;31507;51.494;7.518;2022-07-29T13:28:33;20.70;92.20
45807;DHT22;31507;51.494;7.518;2022-07-29T13:30:59;20.70;92.00
45807;DHT22;31507;51.494;7.518;2022-07-29T13:33:25;20.90;92.40
45807;DHT22;31507;51.494;7.518;2022-07-29T13:35:51;20.90;92.00
45807;DHT22;31507;51.494;7.518;2022-07-29T13:38:16;21.20;92.30
45807;DHT22;31507;51.494;7.518;2022-07-29T13:40:42;21.30;92.20
45807;DHT22;31507;51.494;7.518;2022-07-29T13:43:11;21.40;92.00
45807;DHT22;31507;51.494;7.518;2022-07-29T13:45:37;21.70;92.00
45807;DHT22;31507;51.494;7.518;2022-07-29T13:48:03;22.30;91.30
45807;DHT22;31507;51.494;7.518;2022-07-29T13:50:29;22.80;90.40
45807;DHT22;31507;51.494;7.518;2022-07-29T13:52:54;23.50;90.30
45807;DHT22;31507;51.494;7.518;2022-07-29T13:55:20;24.30;89.70
45807;DHT22;31507;51.494;7.518;2022-07-29T13:57:46;25.00;87.10
45807;DHT22;31507;51.494;7.518;2022-07-29T14:00:13;24.90;84.60
45807;DHT22;31507;51.494;7.518;2022-07-29T14:02:39;24.30;86.40
45807;DHT22;31507;51.494;7.518;2022-07-29T14:05:05;24.20;86.30
45807;DHT22;31507;51.494;7.518;2022-07-29T14:07:31;24.30;85.80
45807;DHT22;31507;51.494;7.518;2022-07-29T14:09:57;24.00;84.50
45807;DHT22;31507;51.494;7.518;2022-07-29T14:12:22;23.70;84.60
45807;DHT22;31507;51.494;7.518;2022-07-29T14:14:48;23.70;84.20
45807;DHT22;31507;51.494;7.518;2022-07-29T14:17:15;23.60;84.80
45807;DHT22;31507;51.494;7.518;2022-07-29T14:19:40;23.80;84.90
45807;DHT22;31507;51.494;7.518;2022-07-29T14:22:07;23.90;84.80
45807;DHT22;31507;51.494;7.518;2022-07-29T14:24:33;24.10;84.40
45807;DHT22;31507;51.494;7.518;2022-07-29T14:26:59;24.00;82.70
45807;DHT22;31507;51.494;7.518;2022-07-29T14:29:25;24.10;82.90
45807;DHT22;31507;51.494;7.518;2022-07-29T14:31:51;24.20;83.00
45807;DHT22;31507;51.494;7.518;2022-07-29T14:34:16;24.30;83.00
45807;DHT22;31507;51.494;7.518;2022-07-29T14:36:42;24.50;82.30
45807;DHT22;31507;51.494;7.518;2022-07-29T14:39:08;24.70;80.20
45807;DHT22;31507;51.494;7.518;2022-07-29T14:41:34;24.40;81.30
45807;DHT22;31507;51.494;7.518;2022-07-29T14:43:59;24.40;81.30
45807;DHT22;31507;51.494;7.518;2022-07-29T14:46:26;24.50;81.70
45807;DHT22;31507;51.494;7.518;2022-07-29T14:48:52;24.60;80.90
45807;DHT22;31507;51.494;7.518;2022-07-29T14:51:18;25.00;80.50
45807;DHT22;31507;51.494;7.518;2022-07-29T14:53:44;25.10;79.50
45807;DHT22;31507;51.494;7.518;2022-07-29T14:56:09;25.20;79.60
45807;DHT22;31507;51.494;7.518;2022-07-29T14:58:35;25.40;80.30
45807;DHT22;31507;51.494;7.518;2022-07-29T15:01:01;25.50;80.60
45807;DHT22;31507;51.494;7.518;2022-07-29T15:03:27;25.50;79.30
45807;DHT22;31507;51.494;7.518;2022-07-29T15:05:55;25.40;78.30
45807;DHT22;31507;51.494;7.518;2022-07-29T15:08:21;25.20;78.70
45807;DHT22;31507;51.494;7.518;2022-07-29T15:10:47;25.20;78.30
45807;DHT22;31507;51.494;7.518;2022-07-29T15:13:12;25.40;78.60
45807;DHT22;31507;51.494;7.518;2022-07-29T15:15:38;25.60;77.60
45807;DHT22;31507;51.494;7.518;2022-07-29T15:18:05;25.60;76.90
45807;DHT22;31507;51.494;7.518;2022-07-29T15:20:31;26.00;77.10
45807;DHT22;31507;51.494;7.518;2022-07-29T15:22:56;26.20;76.50
45807;DHT22;31507;51.494;7.518;2022-07-29T15:25:23;26.00;75.40
45807;DHT22;31507;51.494;7.518;2022-07-29T15:27:49;25.80;75.70
45807;DHT22;31507;51.494;7.518;2022-07-29T15:30:14;25.70;76.60
45807;DHT22;31507;51.494;7.518;2022-07-29T15:32:42;25.60;76.50
45807;DHT22;31507;51.494;7.518;2022-07-29T15:35:08;25.40;77.20
45807;DHT22;31507;51.494;7.518;2022-07-29T15:37:38;25.60;76.60
45807;DHT22;31507;51.494;7.518;2022-07-29T15:40:05;25.60;76.60
45807;DHT22;31507;51.494;7.518;2022-07-29T15:42:31;25.60;76.60
45807;DHT22;31507;51.494;7.518;2022-07-29T15:44:57;25.60;76.50
45807;DHT22;31507;51.494;7.518;2022-07-29T15:47:28;25.40;76.50
45807;DHT22;31507;51.494;7.518;2022-07-29T15:49:54;25.20;77.00
45807;DHT22;31507;51.494;7.518;2022-07-29T15:52:19;24.90;78.10
45807;DHT22;31507;51.494;7.518;2022-07-29T15:54:45;24.60;78.90
45807;DHT22;31507;51.494;7.518;2022-07-29T15:57:11;24.40;79.60
45807;DHT22;31507;51.494;7.518;2022-07-29T15:59:37;24.20;80.20
45807;DHT22;31507;51.494;7.518;2022-07-29T16:02:02;24.30;80.80
45807;DHT22;31507;51.494;7.518;2022-07-29T16:04:28;24.50;80.60
45807;DHT22;31507;51.494;7.518;2022-07-29T16:06:54;24.50;79.90